Patricia, South Dakota
Current Conditions -  °F | °C
As of 4:52 AM on Monday 22 Dec 2014 (Local Time) from KIEN Reporting Station
Overcast Overcast  
Wind Chill: 31°   Ceiling: 8500
Heat Index: 36°   Visibility: 10mi
Dew Point: 31°   Wind: 6mph
Humidity: 82%   Direction: 280°W
Pressure: 29.57"   Gusts: NA
Location:  43.2013°N, 101.679°W
Report Text: KIEN 221152Z AUTO 28005KT 10SM OVC085 02/M01 A2957 RMK AO2 SLP027 60007 70007 T00221006 10033 20011 50000
Loading
Personal Weather Stations






























Interactive Weather Map New forecast layout! Learn more

10-Day Weather Forecast

Advertisements
Track Severe Weather on mobile